createdAt,value
2023-11-02T00:00:10.725Z,69.37
2023-11-02T00:05:45.985Z,69.59
2023-11-02T00:10:48.256Z,69.74
2023-11-02T00:15:50.146Z,69.72
2023-11-02T00:20:55.678Z,70.07
2023-11-02T00:25:59.152Z,70.19
2023-11-02T00:31:02.122Z,70.12
2023-11-02T00:36:04.352Z,70.45
2023-11-02T00:41:07.037Z,70.48
2023-11-02T00:46:09.287Z,70.52
2023-11-02T00:51:21.889Z,70.74
2023-11-02T00:56:28.714Z,70.78
2023-11-02T01:01:30.655Z,70.88
2023-11-02T01:06:34.486Z,70.90
2023-11-02T01:11:39.168Z,71.06
2023-11-02T01:16:42.620Z,71.05
2023-11-02T01:21:45.158Z,71.28
2023-11-02T01:27:02.441Z,71.34
2023-11-02T01:32:04.772Z,71.45
2023-11-02T01:37:06.706Z,71.83
2023-11-02T01:42:40.999Z,72.04
2023-11-02T01:47:54.967Z,72.22
2023-11-02T01:53:09.087Z,72.16
2023-11-02T01:58:37.284Z,72.27
2023-11-02T02:03:50.961Z,72.10
2023-11-02T02:09:20.788Z,72.15
2023-11-02T02:14:25.621Z,72.20
2023-11-02T02:19:45.645Z,72.48
2023-11-02T02:25:24.702Z,72.56
2023-11-02T02:30:47.446Z,72.57
2023-11-02T02:36:15.086Z,72.41
2023-11-02T02:41:20.809Z,72.57
2023-11-02T02:46:26.916Z,72.77
2023-11-02T02:51:30.968Z,72.95
2023-11-02T02:56:37.263Z,72.93
2023-11-02T03:01:44.638Z,72.88
2023-11-02T03:06:50.943Z,72.68
2023-11-02T03:11:59.092Z,72.80
2023-11-02T03:17:16.802Z,72.78
2023-11-02T03:22:24.373Z,72.83
2023-11-02T03:27:33.940Z,72.79
2023-11-02T03:33:00.971Z,72.70
2023-11-02T03:38:06.289Z,72.61
2023-11-02T03:43:22.448Z,72.74
2023-11-02T03:48:49.584Z,72.75
2023-11-02T03:54:44.362Z,73.20
2023-11-02T03:59:56.865Z,73.03
2023-11-02T04:05:16.612Z,73.37
2023-11-02T04:10:23.851Z,73.44
2023-11-02T04:15:26.133Z,73.30
2023-11-02T04:20:28.338Z,73.44
2023-11-02T04:25:31.477Z,73.60
2023-11-02T04:30:34.103Z,73.46
2023-11-02T04:35:37.907Z,73.53
2023-11-02T04:40:42.919Z,73.74
2023-11-02T04:45:45.105Z,74.04
2023-11-02T04:50:48.583Z,74.43
2023-11-02T04:55:50.648Z,74.19
2023-11-02T05:00:54.358Z,74.48
2023-11-02T05:05:57.104Z,74.31
2023-11-02T05:10:59.406Z,74.66
2023-11-02T05:16:01.560Z,74.66
2023-11-02T05:21:03.959Z,74.85
2023-11-02T05:26:07.350Z,74.96
2023-11-02T05:31:09.655Z,75.47
2023-11-02T05:36:11.866Z,75.13
2023-11-02T05:41:14.045Z,75.38
2023-11-02T05:46:16.185Z,75.24
2023-11-02T05:51:18.248Z,75.27
2023-11-02T05:56:20.171Z,75.23
2023-11-02T06:01:22.145Z,75.34
2023-11-02T06:06:24.232Z,75.33
2023-11-02T06:11:27.848Z,75.72
2023-11-02T06:16:30.080Z,75.86
2023-11-02T06:21:32.093Z,76.11
2023-11-02T06:26:34.351Z,76.42
2023-11-02T06:31:37.607Z,76.68
2023-11-02T06:36:40.264Z,76.85
2023-11-02T06:41:42.583Z,76.85
2023-11-02T06:46:44.974Z,76.83
2023-11-02T06:51:47.556Z,76.73
2023-11-02T06:56:49.808Z,76.63
2023-11-02T07:01:54.254Z,76.95
2023-11-02T07:06:56.744Z,76.97
2023-11-02T07:11:58.945Z,76.94
2023-11-02T07:17:01.130Z,77.27
2023-11-02T07:22:03.377Z,77.17
2023-11-02T07:27:06.132Z,77.02
2023-11-02T07:32:10.245Z,76.74
2023-11-02T07:37:12.829Z,76.80
2023-11-02T07:42:15.009Z,77.15
2023-11-02T07:47:18.823Z,77.01
2023-11-02T07:52:20.928Z,76.91
2023-11-02T07:57:23.451Z,76.79
2023-11-02T08:02:25.553Z,76.94
2023-11-02T08:07:27.701Z,76.81
2023-11-02T08:12:30.873Z,76.50
2023-11-02T08:17:35.387Z,76.50
2023-11-02T08:22:37.958Z,76.34
2023-11-02T08:27:40.279Z,76.18
2023-11-02T08:32:42.474Z,75.89
2023-11-02T08:37:45.205Z,75.64
2023-11-02T08:42:48.795Z,75.60
2023-11-02T08:47:50.928Z,75.69
2023-11-02T08:52:52.894Z,75.50
2023-11-02T08:57:55.017Z,75.47
2023-11-02T09:02:57.284Z,75.32
2023-11-02T09:07:59.474Z,75.56
2023-11-02T09:13:02.064Z,75.30
2023-11-02T09:18:04.226Z,75.56
2023-11-02T09:23:06.233Z,75.89
2023-11-02T09:28:09.461Z,76.15
2023-11-02T09:33:12.485Z,75.61
2023-11-02T09:38:15.812Z,75.68
2023-11-02T09:43:20.305Z,75.75
2023-11-02T09:48:22.410Z,75.89
2023-11-02T09:53:24.959Z,76.03
2023-11-02T09:58:28.331Z,76.01
2023-11-02T10:03:30.474Z,75.82
2023-11-02T10:08:32.834Z,75.72
2023-11-02T10:13:34.855Z,75.70
2023-11-02T10:18:37.370Z,75.63
2023-11-02T10:23:50.925Z,75.48
2023-11-02T10:28:55.764Z,75.33
2023-11-02T10:34:01.275Z,74.79
2023-11-02T10:39:03.525Z,74.27
2023-11-02T10:44:08.308Z,74.14
2023-11-02T10:49:13.016Z,74.08
2023-11-02T10:54:44.723Z,73.79
2023-11-02T10:59:48.985Z,73.58
2023-11-02T11:04:51.950Z,73.04
2023-11-02T11:09:56.259Z,72.67
2023-11-02T11:14:59.663Z,72.22
2023-11-02T11:20:01.821Z,71.99
2023-11-02T11:25:05.921Z,71.69
2023-11-02T11:30:23.354Z,71.57
2023-11-02T11:35:26.628Z,71.63
2023-11-02T11:40:31.117Z,71.27
2023-11-02T11:45:36.443Z,71.08
2023-11-02T11:50:42.738Z,70.84
2023-11-02T11:55:48.289Z,70.47
2023-11-02T12:00:50.243Z,70.43
2023-11-02T12:05:53.554Z,70.42
2023-11-02T12:11:01.246Z,70.28
2023-11-02T12:16:05.394Z,70.16
2023-11-02T12:21:21.739Z,69.98
2023-11-02T12:26:28.905Z,70.07
2023-11-02T12:31:35.495Z,70.21
2023-11-02T12:36:39.688Z,70.17
2023-11-02T12:41:43.474Z,70.27
2023-11-02T12:46:49.461Z,70.36
2023-11-02T12:51:51.512Z,70.46
2023-11-02T12:56:55.928Z,70.59
2023-11-02T13:02:01.245Z,70.33
2023-11-02T13:07:21.256Z,70.64
2023-11-02T13:12:23.281Z,70.73
2023-11-02T13:17:26.122Z,70.70
2023-11-02T13:22:28.221Z,71.05
2023-11-02T13:27:30.384Z,71.32
2023-11-02T13:32:32.480Z,71.47
2023-11-02T13:37:34.997Z,72.03
2023-11-02T13:42:44.150Z,72.10
2023-11-02T13:47:49.825Z,72.29
2023-11-02T13:52:51.876Z,72.44
2023-11-02T13:57:54.225Z,72.69
2023-11-02T14:02:57.006Z,72.76
2023-11-02T14:07:59.305Z,72.88
2023-11-02T14:13:02.425Z,72.94
2023-11-02T14:18:06.551Z,72.88
2023-11-02T14:23:11.289Z,72.85
2023-11-02T14:28:13.219Z,72.95
2023-11-02T14:33:16.560Z,72.90
2023-11-02T14:38:20.788Z,73.06
2023-11-02T14:43:23.879Z,73.02
2023-11-02T14:48:25.943Z,73.26
2023-11-02T14:53:27.920Z,73.40
2023-11-02T14:58:29.887Z,73.47
2023-11-02T15:03:33.571Z,73.50
2023-11-02T15:08:36.180Z,73.55
2023-11-02T15:13:39.072Z,73.71
2023-11-02T15:18:43.125Z,73.37
2023-11-02T15:23:45.506Z,73.48
2023-11-02T15:28:48.304Z,73.39
2023-11-02T15:33:50.465Z,73.50
2023-11-02T15:38:52.637Z,73.69
2023-11-02T15:43:54.601Z,73.79
2023-11-02T15:48:56.672Z,73.90
2023-11-02T15:53:58.629Z,74.00
2023-11-02T15:59:01.483Z,74.02
2023-11-02T16:04:03.548Z,73.92
2023-11-02T16:09:05.899Z,73.87
2023-11-02T16:14:07.901Z,73.82
2023-11-02T16:19:10.045Z,73.91
2023-11-02T16:24:12.447Z,74.08
2023-11-02T16:29:14.867Z,74.19
2023-11-02T16:39:26.625Z,74.35
2023-11-02T16:44:28.961Z,74.56
2023-11-02T16:49:31.051Z,74.72
2023-11-02T16:54:33.372Z,74.99
2023-11-02T16:59:36.702Z,75.18
2023-11-02T17:04:39.848Z,75.37
2023-11-02T17:09:41.952Z,75.66
2023-11-02T17:14:44.206Z,75.91
2023-11-02T17:19:46.248Z,76.20
2023-11-02T17:24:48.469Z,76.46
2023-11-02T17:29:51.330Z,76.76
2023-11-02T17:34:53.542Z,77.18
2023-11-02T17:39:55.919Z,77.60
2023-11-02T17:44:58.746Z,77.78
2023-11-02T17:50:00.874Z,78.09
2023-11-02T17:55:03.316Z,78.39
2023-11-02T18:00:08.309Z,78.74
2023-11-02T18:05:14.526Z,78.69
2023-11-02T18:10:16.658Z,78.94
2023-11-02T18:15:18.609Z,78.99
2023-11-02T18:20:20.647Z,78.99
2023-11-02T18:25:23.163Z,79.19
2023-11-02T18:30:25.554Z,79.45
2023-11-02T18:35:27.643Z,79.74
2023-11-02T18:40:30.062Z,80.09
2023-11-02T18:45:32.114Z,80.67
2023-11-02T18:50:34.525Z,81.06
2023-11-02T18:55:37.591Z,81.09
2023-11-02T19:00:41.946Z,81.26
2023-11-02T19:05:44.922Z,81.33
2023-11-02T19:10:46.903Z,81.54
2023-11-02T19:15:49.826Z,81.76
2023-11-02T19:20:52.496Z,82.00
2023-11-02T19:25:55.205Z,81.94
2023-11-02T19:30:57.466Z,81.86
2023-11-02T19:36:02.656Z,81.78
2023-11-02T19:41:04.714Z,81.79
2023-11-02T19:46:06.663Z,81.84
2023-11-02T19:51:15.197Z,81.98
2023-11-02T19:56:17.135Z,81.91
2023-11-02T20:01:19.157Z,82.00
2023-11-02T20:06:21.037Z,81.95
2023-11-02T20:11:23.447Z,81.81
2023-11-02T20:16:25.357Z,81.78
2023-11-02T20:21:27.409Z,81.90
2023-11-02T20:26:29.690Z,82.20
2023-11-02T20:31:31.621Z,82.46
2023-11-02T20:36:33.674Z,82.49
2023-11-02T20:41:35.613Z,82.74
2023-11-02T20:46:42.134Z,82.74
2023-11-02T20:51:46.183Z,82.66
2023-11-02T20:56:48.126Z,82.58
2023-11-02T21:01:50.469Z,82.28
2023-11-02T21:06:58.713Z,82.40
2023-11-02T21:12:03.785Z,82.38
2023-11-02T21:17:06.185Z,82.45
2023-11-02T21:22:11.829Z,82.66
2023-11-02T21:27:15.384Z,82.87
2023-11-02T21:32:17.334Z,82.96
2023-11-02T21:37:19.287Z,82.84
2023-11-02T21:42:21.417Z,82.72
2023-11-02T21:47:23.587Z,82.62
2023-11-02T21:52:25.386Z,82.48
2023-11-02T21:57:27.366Z,82.53
2023-11-02T22:02:29.303Z,82.17
2023-11-02T22:07:31.346Z,82.43
2023-11-02T22:12:33.236Z,82.41
2023-11-02T22:17:35.218Z,82.46
2023-11-02T22:22:37.853Z,82.52
2023-11-02T22:27:39.773Z,82.61
2023-11-02T22:32:42.897Z,82.74
2023-11-02T22:37:44.838Z,82.69
2023-11-02T22:42:47.191Z,82.52
2023-11-02T22:47:49.371Z,82.59
2023-11-02T22:52:52.669Z,82.68
2023-11-02T22:57:55.206Z,82.54
2023-11-02T23:02:57.125Z,82.76
2023-11-02T23:07:59.191Z,82.59
2023-11-02T23:13:01.218Z,82.76
2023-11-02T23:18:03.901Z,82.73
2023-11-02T23:23:07.126Z,82.70
2023-11-02T23:28:09.209Z,82.84
2023-11-02T23:33:11.274Z,82.95
2023-11-02T23:38:13.396Z,82.76
2023-11-02T23:43:17.572Z,82.84
2023-11-02T23:48:19.764Z,82.83
2023-11-02T23:53:22.130Z,82.79
2023-11-02T23:58:24.109Z,82.79
